sensor_id;sensor_type;location;lat;lon;timestamp;P1;durP1;ratioP1;P2;durP2;ratioP2
18804;SDS011;9530;48.930;9.526;2022-11-12T00:00:04;4.57;;;2.30;;
18804;SDS011;9530;48.930;9.526;2022-11-12T00:02:32;2.73;;;2.20;;
18804;SDS011;9530;48.930;9.526;2022-11-12T00:04:59;4.40;;;2.63;;
18804;SDS011;9530;48.930;9.526;2022-11-12T00:07:25;4.50;;;2.97;;
18804;SDS011;9530;48.930;9.526;2022-11-12T00:09:53;2.80;;;2.30;;
18804;SDS011;9530;48.930;9.526;2022-11-12T00:12:20;3.07;;;2.50;;
18804;SDS011;9530;48.930;9.526;2022-11-12T00:14:47;3.77;;;2.40;;
18804;SDS011;9530;48.930;9.526;2022-11-12T00:17:13;4.87;;;2.70;;
18804;SDS011;9530;48.930;9.526;2022-11-12T00:19:40;5.37;;;3.20;;
18804;SDS011;9530;48.930;9.526;2022-11-12T00:22:07;5.53;;;3.10;;
18804;SDS011;9530;48.930;9.526;2022-11-12T00:24:34;4.17;;;2.67;;
18804;SDS011;9530;48.930;9.526;2022-11-12T00:27:02;4.63;;;2.63;;
18804;SDS011;9530;48.930;9.526;2022-11-12T00:29:28;3.77;;;2.60;;
18804;SDS011;9530;48.930;9.526;2022-11-12T00:31:55;3.27;;;2.60;;
18804;SDS011;9530;48.930;9.526;2022-11-12T00:34:22;4.13;;;2.80;;
18804;SDS011;9530;48.930;9.526;2022-11-12T00:36:48;4.93;;;3.40;;
18804;SDS011;9530;48.930;9.526;2022-11-12T00:39:15;4.80;;;3.40;;
18804;SDS011;9530;48.930;9.526;2022-11-12T00:41:42;4.53;;;3.53;;
18804;SDS011;9530;48.930;9.526;2022-11-12T00:44:10;4.97;;;3.77;;
18804;SDS011;9530;48.930;9.526;2022-11-12T00:46:36;6.47;;;3.63;;
18804;SDS011;9530;48.930;9.526;2022-11-12T00:49:03;4.77;;;3.43;;
18804;SDS011;9530;48.930;9.526;2022-11-12T00:51:30;4.73;;;2.73;;
18804;SDS011;9530;48.930;9.526;2022-11-12T00:53:56;4.67;;;3.20;;
18804;SDS011;9530;48.930;9.526;2022-11-12T00:56:23;5.33;;;2.90;;
18804;SDS011;9530;48.930;9.526;2022-11-12T00:58:50;5.77;;;2.57;;
18804;SDS011;9530;48.930;9.526;2022-11-12T01:01:18;4.27;;;2.37;;
18804;SDS011;9530;48.930;9.526;2022-11-12T01:03:45;3.03;;;2.50;;
18804;SDS011;9530;48.930;9.526;2022-11-12T01:06:12;2.60;;;2.40;;
18804;SDS011;9530;48.930;9.526;2022-11-12T01:08:40;4.13;;;2.33;;
18804;SDS011;9530;48.930;9.526;2022-11-12T01:11:08;4.30;;;2.10;;
18804;SDS011;9530;48.930;9.526;2022-11-12T01:13:37;3.30;;;2.20;;
18804;SDS011;9530;48.930;9.526;2022-11-12T01:16:05;2.90;;;2.27;;
18804;SDS011;9530;48.930;9.526;2022-11-12T01:18:33;4.30;;;2.20;;
18804;SDS011;9530;48.930;9.526;2022-11-12T01:21:01;6.50;;;2.40;;
18804;SDS011;9530;48.930;9.526;2022-11-12T01:23:28;3.53;;;2.30;;
18804;SDS011;9530;48.930;9.526;2022-11-12T01:25:57;5.27;;;2.90;;
18804;SDS011;9530;48.930;9.526;2022-11-12T01:28:28;3.20;;;2.30;;
18804;SDS011;9530;48.930;9.526;2022-11-12T01:30:55;3.17;;;2.67;;
18804;SDS011;9530;48.930;9.526;2022-11-12T01:33:21;3.37;;;2.27;;
18804;SDS011;9530;48.930;9.526;2022-11-12T01:35:50;5.77;;;2.30;;
18804;SDS011;9530;48.930;9.526;2022-11-12T01:38:16;5.10;;;3.20;;
18804;SDS011;9530;48.930;9.526;2022-11-12T01:40:43;4.90;;;3.20;;
18804;SDS011;9530;48.930;9.526;2022-11-12T01:43:10;3.27;;;2.70;;
18804;SDS011;9530;48.930;9.526;2022-11-12T01:45:38;2.90;;;2.60;;
18804;SDS011;9530;48.930;9.526;2022-11-12T01:48:07;3.97;;;2.30;;
18804;SDS011;9530;48.930;9.526;2022-11-12T01:50:40;3.20;;;2.43;;
18804;SDS011;9530;48.930;9.526;2022-11-12T01:53:09;6.30;;;2.87;;
18804;SDS011;9530;48.930;9.526;2022-11-12T01:55:38;7.23;;;2.73;;
18804;SDS011;9530;48.930;9.526;2022-11-12T01:58:06;3.17;;;2.60;;
18804;SDS011;9530;48.930;9.526;2022-11-12T02:00:35;4.33;;;2.47;;
18804;SDS011;9530;48.930;9.526;2022-11-12T02:03:03;4.37;;;2.80;;
18804;SDS011;9530;48.930;9.526;2022-11-12T02:05:34;6.50;;;2.97;;
18804;SDS011;9530;48.930;9.526;2022-11-12T02:08:02;8.70;;;3.37;;
18804;SDS011;9530;48.930;9.526;2022-11-12T02:10:32;6.03;;;4.30;;
18804;SDS011;9530;48.930;9.526;2022-11-12T02:13:00;8.30;;;5.20;;
18804;SDS011;9530;48.930;9.526;2022-11-12T02:15:44;8.63;;;5.70;;
18804;SDS011;9530;48.930;9.526;2022-11-12T02:18:11;10.23;;;5.53;;
18804;SDS011;9530;48.930;9.526;2022-11-12T02:20:38;7.40;;;6.00;;
18804;SDS011;9530;48.930;9.526;2022-11-12T02:23:06;8.80;;;5.63;;
18804;SDS011;9530;48.930;9.526;2022-11-12T02:25:33;10.37;;;5.93;;
18804;SDS011;9530;48.930;9.526;2022-11-12T02:28:02;8.93;;;6.13;;
18804;SDS011;9530;48.930;9.526;2022-11-12T02:30:32;9.07;;;6.07;;
18804;SDS011;9530;48.930;9.526;2022-11-12T02:33:02;9.10;;;6.50;;
18804;SDS011;9530;48.930;9.526;2022-11-12T02:35:29;8.63;;;6.00;;
18804;SDS011;9530;48.930;9.526;2022-11-12T02:37:56;10.40;;;6.47;;
18804;SDS011;9530;48.930;9.526;2022-11-12T02:40:24;7.40;;;5.20;;
18804;SDS011;9530;48.930;9.526;2022-11-12T02:42:51;8.90;;;5.30;;
18804;SDS011;9530;48.930;9.526;2022-11-12T02:45:18;8.60;;;5.60;;
18804;SDS011;9530;48.930;9.526;2022-11-12T02:47:45;7.27;;;4.50;;
18804;SDS011;9530;48.930;9.526;2022-11-12T02:50:12;7.70;;;4.67;;
18804;SDS011;9530;48.930;9.526;2022-11-12T02:52:39;5.83;;;4.40;;
18804;SDS011;9530;48.930;9.526;2022-11-12T02:55:06;8.20;;;5.47;;
18804;SDS011;9530;48.930;9.526;2022-11-12T02:57:36;9.13;;;4.43;;
18804;SDS011;9530;48.930;9.526;2022-11-12T03:00:04;6.17;;;3.83;;
18804;SDS011;9530;48.930;9.526;2022-11-12T03:02:33;6.13;;;3.23;;
18804;SDS011;9530;48.930;9.526;2022-11-12T03:05:07;4.83;;;3.40;;
18804;SDS011;9530;48.930;9.526;2022-11-12T03:07:34;5.00;;;3.70;;
18804;SDS011;9530;48.930;9.526;2022-11-12T03:10:01;7.63;;;3.60;;
18804;SDS011;9530;48.930;9.526;2022-11-12T03:12:29;6.10;;;3.60;;
18804;SDS011;9530;48.930;9.526;2022-11-12T03:14:57;5.10;;;3.90;;
18804;SDS011;9530;48.930;9.526;2022-11-12T03:17:24;8.23;;;3.93;;
18804;SDS011;9530;48.930;9.526;2022-11-12T03:19:50;5.20;;;3.50;;
18804;SDS011;9530;48.930;9.526;2022-11-12T03:22:17;4.50;;;3.70;;
18804;SDS011;9530;48.930;9.526;2022-11-12T03:24:44;6.33;;;3.80;;
18804;SDS011;9530;48.930;9.526;2022-11-12T03:27:10;5.00;;;3.70;;
18804;SDS011;9530;48.930;9.526;2022-11-12T03:29:37;6.10;;;3.63;;
18804;SDS011;9530;48.930;9.526;2022-11-12T03:32:05;3.93;;;3.50;;
18804;SDS011;9530;48.930;9.526;2022-11-12T03:34:32;7.73;;;3.50;;
18804;SDS011;9530;48.930;9.526;2022-11-12T03:36:58;5.77;;;3.30;;
18804;SDS011;9530;48.930;9.526;2022-11-12T03:39:25;4.97;;;3.33;;
18804;SDS011;9530;48.930;9.526;2022-11-12T03:41:52;4.23;;;3.17;;
18804;SDS011;9530;48.930;9.526;2022-11-12T03:44:18;6.43;;;3.40;;
18804;SDS011;9530;48.930;9.526;2022-11-12T03:46:45;4.73;;;3.60;;
18804;SDS011;9530;48.930;9.526;2022-11-12T03:49:13;7.60;;;3.43;;
18804;SDS011;9530;48.930;9.526;2022-11-12T03:51:40;5.17;;;3.13;;
18804;SDS011;9530;48.930;9.526;2022-11-12T03:54:07;5.07;;;3.33;;
18804;SDS011;9530;48.930;9.526;2022-11-12T03:56:33;8.43;;;3.80;;
18804;SDS011;9530;48.930;9.526;2022-11-12T03:59:00;7.03;;;4.90;;
18804;SDS011;9530;48.930;9.526;2022-11-12T04:01:27;9.23;;;6.27;;
18804;SDS011;9530;48.930;9.526;2022-11-12T04:03:54;8.47;;;5.57;;
18804;SDS011;9530;48.930;9.526;2022-11-12T04:06:22;9.17;;;5.73;;
18804;SDS011;9530;48.930;9.526;2022-11-12T04:09:06;9.40;;;5.83;;
18804;SDS011;9530;48.930;9.526;2022-11-12T04:11:32;9.07;;;5.47;;
18804;SDS011;9530;48.930;9.526;2022-11-12T04:13:59;7.17;;;5.20;;
18804;SDS011;9530;48.930;9.526;2022-11-12T04:16:25;5.87;;;4.67;;
18804;SDS011;9530;48.930;9.526;2022-11-12T04:19:10;7.10;;;5.10;;
18804;SDS011;9530;48.930;9.526;2022-11-12T04:21:54;9.10;;;5.30;;
18804;SDS011;9530;48.930;9.526;2022-11-12T04:24:25;7.57;;;5.23;;
18804;SDS011;9530;48.930;9.526;2022-11-12T04:27:12;5.87;;;4.83;;
18804;SDS011;9530;48.930;9.526;2022-11-12T04:29:40;6.63;;;5.10;;
18804;SDS011;9530;48.930;9.526;2022-11-12T04:32:25;9.63;;;5.83;;
18804;SDS011;9530;48.930;9.526;2022-11-12T04:34:52;7.13;;;5.40;;
18804;SDS011;9530;48.930;9.526;2022-11-12T04:37:20;6.77;;;4.90;;
18804;SDS011;9530;48.930;9.526;2022-11-12T04:39:47;7.73;;;5.43;;
18804;SDS011;9530;48.930;9.526;2022-11-12T04:42:14;9.20;;;6.47;;
18804;SDS011;9530;48.930;9.526;2022-11-12T04:44:59;9.83;;;7.70;;
18804;SDS011;9530;48.930;9.526;2022-11-12T04:47:28;9.93;;;7.27;;
18804;SDS011;9530;48.930;9.526;2022-11-12T04:49:56;12.80;;;7.50;;
18804;SDS011;9530;48.930;9.526;2022-11-12T04:52:25;9.33;;;6.13;;
18804;SDS011;9530;48.930;9.526;2022-11-12T04:54:52;7.07;;;5.40;;
18804;SDS011;9530;48.930;9.526;2022-11-12T04:57:19;6.83;;;5.13;;
18804;SDS011;9530;48.930;9.526;2022-11-12T04:59:46;8.10;;;4.90;;
18804;SDS011;9530;48.930;9.526;2022-11-12T05:02:13;7.57;;;5.40;;
18804;SDS011;9530;48.930;9.526;2022-11-12T05:04:40;6.47;;;5.07;;
18804;SDS011;9530;48.930;9.526;2022-11-12T05:07:07;6.87;;;5.57;;
18804;SDS011;9530;48.930;9.526;2022-11-12T05:09:36;8.63;;;6.10;;
18804;SDS011;9530;48.930;9.526;2022-11-12T05:12:02;7.10;;;5.87;;
18804;SDS011;9530;48.930;9.526;2022-11-12T05:14:29;8.57;;;5.73;;
18804;SDS011;9530;48.930;9.526;2022-11-12T05:16:56;9.27;;;6.90;;
18804;SDS011;9530;48.930;9.526;2022-11-12T05:19:23;10.13;;;6.37;;
18804;SDS011;9530;48.930;9.526;2022-11-12T05:21:49;8.10;;;5.87;;
18804;SDS011;9530;48.930;9.526;2022-11-12T05:24:33;47.67;;;20.47;;
18804;SDS011;9530;48.930;9.526;2022-11-12T05:27:03;33.33;;;15.37;;
18804;SDS011;9530;48.930;9.526;2022-11-12T05:29:32;23.40;;;12.43;;
18804;SDS011;9530;48.930;9.526;2022-11-12T05:31:59;78.77;;;33.70;;
18804;SDS011;9530;48.930;9.526;2022-11-12T05:34:26;81.33;;;35.53;;
18804;SDS011;9530;48.930;9.526;2022-11-12T05:36:53;65.87;;;29.97;;
18804;SDS011;9530;48.930;9.526;2022-11-12T05:39:19;32.40;;;15.97;;
18804;SDS011;9530;48.930;9.526;2022-11-12T05:41:48;18.00;;;10.53;;
18804;SDS011;9530;48.930;9.526;2022-11-12T05:44:15;20.03;;;9.73;;
18804;SDS011;9530;48.930;9.526;2022-11-12T05:46:42;14.73;;;9.67;;
18804;SDS011;9530;48.930;9.526;2022-11-12T05:49:09;9.83;;;7.03;;
18804;SDS011;9530;48.930;9.526;2022-11-12T05:51:36;7.90;;;6.23;;
18804;SDS011;9530;48.930;9.526;2022-11-12T05:54:03;10.13;;;6.97;;
18804;SDS011;9530;48.930;9.526;2022-11-12T05:56:30;8.63;;;6.17;;
18804;SDS011;9530;48.930;9.526;2022-11-12T05:58:59;8.70;;;6.73;;
18804;SDS011;9530;48.930;9.526;2022-11-12T06:01:26;11.20;;;6.30;;
18804;SDS011;9530;48.930;9.526;2022-11-12T06:03:53;7.47;;;5.40;;
18804;SDS011;9530;48.930;9.526;2022-11-12T06:06:20;7.20;;;5.43;;
18804;SDS011;9530;48.930;9.526;2022-11-12T06:11:14;6.27;;;4.60;;
18804;SDS011;9530;48.930;9.526;2022-11-12T06:13:42;8.10;;;4.33;;
18804;SDS011;9530;48.930;9.526;2022-11-12T06:16:10;7.70;;;5.10;;
18804;SDS011;9530;48.930;9.526;2022-11-12T06:18:36;9.17;;;4.90;;
18804;SDS011;9530;48.930;9.526;2022-11-12T06:21:04;8.43;;;4.80;;
18804;SDS011;9530;48.930;9.526;2022-11-12T06:23:52;6.23;;;4.10;;
18804;SDS011;9530;48.930;9.526;2022-11-12T06:26:21;5.43;;;4.33;;
18804;SDS011;9530;48.930;9.526;2022-11-12T06:28:49;4.90;;;4.17;;
18804;SDS011;9530;48.930;9.526;2022-11-12T06:31:17;5.30;;;3.93;;
18804;SDS011;9530;48.930;9.526;2022-11-12T06:33:44;6.67;;;4.50;;
18804;SDS011;9530;48.930;9.526;2022-11-12T06:36:12;4.37;;;3.70;;
18804;SDS011;9530;48.930;9.526;2022-11-12T06:38:40;5.30;;;3.80;;
18804;SDS011;9530;48.930;9.526;2022-11-12T06:41:08;4.93;;;4.03;;
18804;SDS011;9530;48.930;9.526;2022-11-12T06:43:36;5.10;;;3.90;;
18804;SDS011;9530;48.930;9.526;2022-11-12T06:46:04;6.77;;;3.93;;
18804;SDS011;9530;48.930;9.526;2022-11-12T06:48:33;6.83;;;4.10;;
18804;SDS011;9530;48.930;9.526;2022-11-12T06:51:04;7.67;;;6.07;;
18804;SDS011;9530;48.930;9.526;2022-11-12T06:53:32;9.53;;;7.27;;
18804;SDS011;9530;48.930;9.526;2022-11-12T06:56:03;14.23;;;10.20;;
18804;SDS011;9530;48.930;9.526;2022-11-12T06:58:31;12.17;;;7.43;;
18804;SDS011;9530;48.930;9.526;2022-11-12T07:01:02;10.53;;;6.97;;
18804;SDS011;9530;48.930;9.526;2022-11-12T07:03:30;11.60;;;8.30;;
18804;SDS011;9530;48.930;9.526;2022-11-12T07:05:58;11.67;;;7.03;;
18804;SDS011;9530;48.930;9.526;2022-11-12T07:08:29;7.70;;;5.90;;
18804;SDS011;9530;48.930;9.526;2022-11-12T07:10:55;10.20;;;7.80;;
18804;SDS011;9530;48.930;9.526;2022-11-12T07:13:22;10.63;;;8.10;;
18804;SDS011;9530;48.930;9.526;2022-11-12T07:15:49;13.13;;;7.60;;
18804;SDS011;9530;48.930;9.526;2022-11-12T07:18:16;10.77;;;8.00;;
18804;SDS011;9530;48.930;9.526;2022-11-12T07:20:43;11.97;;;9.03;;
18804;SDS011;9530;48.930;9.526;2022-11-12T07:23:11;12.23;;;8.00;;
18804;SDS011;9530;48.930;9.526;2022-11-12T07:25:37;9.43;;;7.40;;
18804;SDS011;9530;48.930;9.526;2022-11-12T07:28:04;12.37;;;8.00;;
18804;SDS011;9530;48.930;9.526;2022-11-12T07:30:31;11.10;;;8.77;;
18804;SDS011;9530;48.930;9.526;2022-11-12T07:32:57;14.33;;;10.73;;
18804;SDS011;9530;48.930;9.526;2022-11-12T07:35:24;25.33;;;18.47;;
18804;SDS011;9530;48.930;9.526;2022-11-12T07:37:51;16.03;;;12.77;;
18804;SDS011;9530;48.930;9.526;2022-11-12T07:40:19;15.63;;;10.83;;
18804;SDS011;9530;48.930;9.526;2022-11-12T07:42:46;11.17;;;8.20;;
18804;SDS011;9530;48.930;9.526;2022-11-12T07:45:12;12.63;;;7.90;;
18804;SDS011;9530;48.930;9.526;2022-11-12T07:47:39;17.47;;;10.33;;
18804;SDS011;9530;48.930;9.526;2022-11-12T07:50:06;16.77;;;13.10;;
18804;SDS011;9530;48.930;9.526;2022-11-12T07:52:33;17.10;;;12.20;;
18804;SDS011;9530;48.930;9.526;2022-11-12T07:55:00;18.30;;;14.13;;
18804;SDS011;9530;48.930;9.526;2022-11-12T07:57:28;19.70;;;14.07;;
18804;SDS011;9530;48.930;9.526;2022-11-12T07:59:57;19.43;;;14.60;;
18804;SDS011;9530;48.930;9.526;2022-11-12T08:02:24;15.83;;;12.87;;
18804;SDS011;9530;48.930;9.526;2022-11-12T08:04:50;16.60;;;12.53;;
18804;SDS011;9530;48.930;9.526;2022-11-12T08:07:17;15.60;;;11.57;;
18804;SDS011;9530;48.930;9.526;2022-11-12T08:09:44;15.23;;;12.00;;
18804;SDS011;9530;48.930;9.526;2022-11-12T08:12:10;15.63;;;11.10;;
18804;SDS011;9530;48.930;9.526;2022-11-12T08:14:38;22.33;;;13.23;;
18804;SDS011;9530;48.930;9.526;2022-11-12T08:17:05;15.63;;;12.47;;
18804;SDS011;9530;48.930;9.526;2022-11-12T08:19:32;12.80;;;11.03;;
18804;SDS011;9530;48.930;9.526;2022-11-12T08:21:58;17.10;;;11.80;;
18804;SDS011;9530;48.930;9.526;2022-11-12T08:24:25;14.30;;;11.70;;
18804;SDS011;9530;48.930;9.526;2022-11-12T08:26:52;17.00;;;11.70;;
18804;SDS011;9530;48.930;9.526;2022-11-12T08:29:18;14.73;;;11.93;;
18804;SDS011;9530;48.930;9.526;2022-11-12T08:31:48;15.37;;;12.27;;
18804;SDS011;9530;48.930;9.526;2022-11-12T08:34:15;14.30;;;11.10;;
18804;SDS011;9530;48.930;9.526;2022-11-12T08:36:42;15.07;;;11.17;;
18804;SDS011;9530;48.930;9.526;2022-11-12T08:39:09;13.67;;;10.53;;
18804;SDS011;9530;48.930;9.526;2022-11-12T08:41:35;14.43;;;10.93;;
18804;SDS011;9530;48.930;9.526;2022-11-12T08:44:02;14.40;;;10.73;;
18804;SDS011;9530;48.930;9.526;2022-11-12T08:46:29;15.93;;;9.80;;
18804;SDS011;9530;48.930;9.526;2022-11-12T08:48:57;11.87;;;9.53;;
18804;SDS011;9530;48.930;9.526;2022-11-12T08:51:24;11.53;;;8.23;;
18804;SDS011;9530;48.930;9.526;2022-11-12T08:53:51;9.77;;;6.53;;
18804;SDS011;9530;48.930;9.526;2022-11-12T08:56:17;9.87;;;6.53;;
18804;SDS011;9530;48.930;9.526;2022-11-12T08:58:44;9.63;;;6.70;;
18804;SDS011;9530;48.930;9.526;2022-11-12T09:01:11;9.63;;;6.37;;
18804;SDS011;9530;48.930;9.526;2022-11-12T09:03:38;9.60;;;7.10;;
18804;SDS011;9530;48.930;9.526;2022-11-12T09:06:06;9.20;;;7.30;;
18804;SDS011;9530;48.930;9.526;2022-11-12T09:08:33;10.77;;;7.13;;
18804;SDS011;9530;48.930;9.526;2022-11-12T09:11:02;10.13;;;6.17;;
18804;SDS011;9530;48.930;9.526;2022-11-12T09:13:29;11.37;;;6.57;;
18804;SDS011;9530;48.930;9.526;2022-11-12T09:16:00;8.73;;;6.80;;
18804;SDS011;9530;48.930;9.526;2022-11-12T09:18:27;12.53;;;7.87;;
18804;SDS011;9530;48.930;9.526;2022-11-12T09:20:58;13.93;;;7.37;;
18804;SDS011;9530;48.930;9.526;2022-11-12T09:23:27;8.20;;;6.93;;
18804;SDS011;9530;48.930;9.526;2022-11-12T09:25:54;7.37;;;5.80;;
18804;SDS011;9530;48.930;9.526;2022-11-12T09:28:21;10.17;;;6.57;;
18804;SDS011;9530;48.930;9.526;2022-11-12T09:30:48;7.57;;;5.47;;
18804;SDS011;9530;48.930;9.526;2022-11-12T09:33:16;6.60;;;5.07;;
18804;SDS011;9530;48.930;9.526;2022-11-12T09:35:44;6.93;;;5.00;;
18804;SDS011;9530;48.930;9.526;2022-11-12T09:38:12;6.43;;;5.70;;
18804;SDS011;9530;48.930;9.526;2022-11-12T09:40:48;7.67;;;5.30;;
18804;SDS011;9530;48.930;9.526;2022-11-12T09:43:27;7.10;;;5.23;;
18804;SDS011;9530;48.930;9.526;2022-11-12T09:45:58;7.07;;;5.23;;
18804;SDS011;9530;48.930;9.526;2022-11-12T09:48:31;6.53;;;4.97;;
18804;SDS011;9530;48.930;9.526;2022-11-12T09:51:05;6.57;;;5.27;;
18804;SDS011;9530;48.930;9.526;2022-11-12T09:53:38;8.63;;;5.07;;
18804;SDS011;9530;48.930;9.526;2022-11-12T09:56:12;6.70;;;4.73;;
18804;SDS011;9530;48.930;9.526;2022-11-12T09:58:41;5.80;;;4.70;;
18804;SDS011;9530;48.930;9.526;2022-11-12T10:01:11;8.53;;;5.33;;
18804;SDS011;9530;48.930;9.526;2022-11-12T10:03:42;7.33;;;5.37;;
18804;SDS011;9530;48.930;9.526;2022-11-12T10:06:15;5.80;;;4.80;;
18804;SDS011;9530;48.930;9.526;2022-11-12T10:08:47;5.80;;;4.83;;
18804;SDS011;9530;48.930;9.526;2022-11-12T10:11:28;7.50;;;5.70;;
18804;SDS011;9530;48.930;9.526;2022-11-12T10:14:46;6.40;;;5.57;;
18804;SDS011;9530;48.930;9.526;2022-11-12T10:17:25;7.13;;;5.40;;
18804;SDS011;9530;48.930;9.526;2022-11-12T10:19:57;7.83;;;5.47;;
18804;SDS011;9530;48.930;9.526;2022-11-12T10:22:34;8.23;;;5.10;;
18804;SDS011;9530;48.930;9.526;2022-11-12T10:25:13;9.23;;;5.97;;
18804;SDS011;9530;48.930;9.526;2022-11-12T10:27:42;6.60;;;5.50;;
18804;SDS011;9530;48.930;9.526;2022-11-12T10:30:14;7.23;;;5.30;;
18804;SDS011;9530;48.930;9.526;2022-11-12T10:32:42;7.70;;;5.80;;
18804;SDS011;9530;48.930;9.526;2022-11-12T10:35:11;8.07;;;5.20;;
18804;SDS011;9530;48.930;9.526;2022-11-12T10:37:41;8.73;;;5.37;;
18804;SDS011;9530;48.930;9.526;2022-11-12T10:40:24;7.40;;;5.30;;
18804;SDS011;9530;48.930;9.526;2022-11-12T10:42:58;7.67;;;5.30;;
18804;SDS011;9530;48.930;9.526;2022-11-12T10:45:26;6.60;;;5.40;;
18804;SDS011;9530;48.930;9.526;2022-11-12T10:47:54;7.33;;;5.20;;
18804;SDS011;9530;48.930;9.526;2022-11-12T10:50:21;5.57;;;4.87;;
18804;SDS011;9530;48.930;9.526;2022-11-12T10:52:57;7.43;;;5.20;;
18804;SDS011;9530;48.930;9.526;2022-11-12T10:55:26;5.60;;;4.90;;
18804;SDS011;9530;48.930;9.526;2022-11-12T10:58:04;8.00;;;5.90;;
18804;SDS011;9530;48.930;9.526;2022-11-12T11:00:57;8.40;;;5.17;;
18804;SDS011;9530;48.930;9.526;2022-11-12T11:03:26;6.90;;;5.13;;
18804;SDS011;9530;48.930;9.526;2022-11-12T11:05:55;6.07;;;5.03;;
18804;SDS011;9530;48.930;9.526;2022-11-12T11:08:35;7.80;;;5.60;;
18804;SDS011;9530;48.930;9.526;2022-11-12T11:11:13;6.93;;;5.00;;
18804;SDS011;9530;48.930;9.526;2022-11-12T11:13:48;5.70;;;4.83;;
18804;SDS011;9530;48.930;9.526;2022-11-12T11:16:16;5.97;;;4.80;;
18804;SDS011;9530;48.930;9.526;2022-11-12T11:18:45;7.40;;;5.13;;
18804;SDS011;9530;48.930;9.526;2022-11-12T11:21:21;6.97;;;5.03;;
18804;SDS011;9530;48.930;9.526;2022-11-12T11:24:16;7.20;;;5.13;;
18804;SDS011;9530;48.930;9.526;2022-11-12T11:26:53;5.20;;;4.53;;
18804;SDS011;9530;48.930;9.526;2022-11-12T11:29:31;8.30;;;5.20;;
18804;SDS011;9530;48.930;9.526;2022-11-12T11:32:08;7.77;;;5.10;;
18804;SDS011;9530;48.930;9.526;2022-11-12T11:34:46;6.13;;;4.97;;
18804;SDS011;9530;48.930;9.526;2022-11-12T11:37:21;7.47;;;5.17;;
18804;SDS011;9530;48.930;9.526;2022-11-12T11:39:55;6.63;;;5.27;;
18804;SDS011;9530;48.930;9.526;2022-11-12T11:42:38;6.37;;;5.17;;
18804;SDS011;9530;48.930;9.526;2022-11-12T11:45:16;7.73;;;4.93;;
18804;SDS011;9530;48.930;9.526;2022-11-12T11:47:51;5.60;;;4.90;;
18804;SDS011;9530;48.930;9.526;2022-11-12T11:50:21;6.37;;;5.07;;
18804;SDS011;9530;48.930;9.526;2022-11-12T11:52:54;6.40;;;4.83;;
18804;SDS011;9530;48.930;9.526;2022-11-12T11:55:36;6.63;;;4.60;;
18804;SDS011;9530;48.930;9.526;2022-11-12T11:58:11;6.73;;;4.30;;
18804;SDS011;9530;48.930;9.526;2022-11-12T12:00:53;6.60;;;4.80;;
18804;SDS011;9530;48.930;9.526;2022-11-12T12:03:27;6.07;;;4.83;;
18804;SDS011;9530;48.930;9.526;2022-11-12T12:06:02;4.83;;;4.33;;
18804;SDS011;9530;48.930;9.526;2022-11-12T12:08:46;6.90;;;4.83;;
18804;SDS011;9530;48.930;9.526;2022-11-12T12:11:31;6.03;;;4.50;;
18804;SDS011;9530;48.930;9.526;2022-11-12T12:16:59;5.93;;;4.37;;
18804;SDS011;9530;48.930;9.526;2022-11-12T12:19:36;5.33;;;4.63;;
18804;SDS011;9530;48.930;9.526;2022-11-12T12:22:11;6.87;;;4.80;;
18804;SDS011;9530;48.930;9.526;2022-11-12T12:24:44;5.33;;;4.30;;
18804;SDS011;9530;48.930;9.526;2022-11-12T12:27:15;7.47;;;4.60;;
18804;SDS011;9530;48.930;9.526;2022-11-12T12:29:45;6.67;;;4.63;;
18804;SDS011;9530;48.930;9.526;2022-11-12T12:32:16;5.37;;;4.20;;
18804;SDS011;9530;48.930;9.526;2022-11-12T12:34:47;5.10;;;4.30;;
18804;SDS011;9530;48.930;9.526;2022-11-12T12:37:21;5.67;;;4.60;;
18804;SDS011;9530;48.930;9.526;2022-11-12T12:39:57;6.30;;;4.80;;
18804;SDS011;9530;48.930;9.526;2022-11-12T12:42:31;6.13;;;5.00;;
18804;SDS011;9530;48.930;9.526;2022-11-12T12:45:09;6.13;;;4.80;;
18804;SDS011;9530;48.930;9.526;2022-11-12T12:47:51;6.90;;;4.43;;
18804;SDS011;9530;48.930;9.526;2022-11-12T12:50:18;6.87;;;4.80;;
18804;SDS011;9530;48.930;9.526;2022-11-12T12:53:02;7.03;;;4.70;;
18804;SDS011;9530;48.930;9.526;2022-11-12T12:55:32;6.13;;;4.83;;
18804;SDS011;9530;48.930;9.526;2022-11-12T12:58:03;7.87;;;4.60;;
18804;SDS011;9530;48.930;9.526;2022-11-12T13:00:40;8.43;;;5.73;;
18804;SDS011;9530;48.930;9.526;2022-11-12T13:03:14;7.40;;;5.13;;
18804;SDS011;9530;48.930;9.526;2022-11-12T13:06:14;7.03;;;4.67;;
18804;SDS011;9530;48.930;9.526;2022-11-12T13:08:47;5.70;;;4.90;;
18804;SDS011;9530;48.930;9.526;2022-11-12T13:23:11;6.87;;;4.90;;
18804;SDS011;9530;48.930;9.526;2022-11-12T13:26:52;7.20;;;5.07;;
18804;SDS011;9530;48.930;9.526;2022-11-12T13:29:22;6.00;;;4.83;;
18804;SDS011;9530;48.930;9.526;2022-11-12T13:37:56;8.20;;;4.73;;
18804;SDS011;9530;48.930;9.526;2022-11-12T13:43:20;6.07;;;4.23;;
18804;SDS011;9530;48.930;9.526;2022-11-12T13:45:56;7.23;;;4.70;;
18804;SDS011;9530;48.930;9.526;2022-11-12T13:48:25;6.30;;;4.70;;
18804;SDS011;9530;48.930;9.526;2022-11-12T13:50:54;7.10;;;4.33;;
18804;SDS011;9530;48.930;9.526;2022-11-12T13:53:24;7.63;;;4.90;;
18804;SDS011;9530;48.930;9.526;2022-11-12T13:55:52;7.80;;;4.87;;
18804;SDS011;9530;48.930;9.526;2022-11-12T13:58:25;6.40;;;5.00;;
18804;SDS011;9530;48.930;9.526;2022-11-12T14:00:54;6.93;;;4.47;;
18804;SDS011;9530;48.930;9.526;2022-11-12T14:03:23;6.83;;;4.73;;
18804;SDS011;9530;48.930;9.526;2022-11-12T14:05:51;5.93;;;4.63;;
18804;SDS011;9530;48.930;9.526;2022-11-12T14:11:20;7.67;;;5.13;;
18804;SDS011;9530;48.930;9.526;2022-11-12T14:14:09;5.73;;;4.67;;
18804;SDS011;9530;48.930;9.526;2022-11-12T14:16:46;5.67;;;4.70;;
18804;SDS011;9530;48.930;9.526;2022-11-12T14:19:25;8.30;;;4.70;;
18804;SDS011;9530;48.930;9.526;2022-11-12T14:22:17;6.43;;;5.00;;
18804;SDS011;9530;48.930;9.526;2022-11-12T14:24:45;8.17;;;5.20;;
18804;SDS011;9530;48.930;9.526;2022-11-12T14:27:32;8.80;;;5.00;;
18804;SDS011;9530;48.930;9.526;2022-11-12T14:30:08;5.50;;;4.60;;
18804;SDS011;9530;48.930;9.526;2022-11-12T14:32:37;6.23;;;5.23;;
18804;SDS011;9530;48.930;9.526;2022-11-12T14:35:25;7.97;;;4.80;;
18804;SDS011;9530;48.930;9.526;2022-11-12T14:37:58;6.33;;;4.60;;
18804;SDS011;9530;48.930;9.526;2022-11-12T14:40:30;8.63;;;4.63;;
18804;SDS011;9530;48.930;9.526;2022-11-12T14:42:58;5.30;;;4.60;;
18804;SDS011;9530;48.930;9.526;2022-11-12T14:45:26;5.70;;;4.57;;
18804;SDS011;9530;48.930;9.526;2022-11-12T14:47:53;6.80;;;4.63;;
18804;SDS011;9530;48.930;9.526;2022-11-12T14:50:23;6.40;;;5.07;;
18804;SDS011;9530;48.930;9.526;2022-11-12T14:52:54;6.13;;;4.83;;
18804;SDS011;9530;48.930;9.526;2022-11-12T14:55:25;5.87;;;5.00;;
18804;SDS011;9530;48.930;9.526;2022-11-12T14:57:54;7.57;;;5.30;;
18804;SDS011;9530;48.930;9.526;2022-11-12T15:00:36;8.23;;;5.07;;
18804;SDS011;9530;48.930;9.526;2022-11-12T15:03:05;7.20;;;5.77;;
18804;SDS011;9530;48.930;9.526;2022-11-12T15:05:36;7.80;;;5.43;;
18804;SDS011;9530;48.930;9.526;2022-11-12T15:08:26;7.90;;;5.17;;
18804;SDS011;9530;48.930;9.526;2022-11-12T15:10:54;8.33;;;5.40;;
18804;SDS011;9530;48.930;9.526;2022-11-12T15:13:22;6.17;;;4.63;;
18804;SDS011;9530;48.930;9.526;2022-11-12T15:15:53;5.43;;;4.30;;
18804;SDS011;9530;48.930;9.526;2022-11-12T15:18:21;5.57;;;4.00;;
18804;SDS011;9530;48.930;9.526;2022-11-12T15:21:01;6.70;;;3.63;;
18804;SDS011;9530;48.930;9.526;2022-11-12T15:23:34;5.60;;;3.47;;
18804;SDS011;9530;48.930;9.526;2022-11-12T15:26:01;5.40;;;2.90;;
18804;SDS011;9530;48.930;9.526;2022-11-12T15:28:28;2.40;;;2.10;;
18804;SDS011;9530;48.930;9.526;2022-11-12T15:31:00;4.83;;;2.40;;
18804;SDS011;9530;48.930;9.526;2022-11-12T15:33:30;2.50;;;2.03;;
18804;SDS011;9530;48.930;9.526;2022-11-12T15:35:57;4.10;;;2.20;;
18804;SDS011;9530;48.930;9.526;2022-11-12T15:38:25;4.10;;;2.47;;
18804;SDS011;9530;48.930;9.526;2022-11-12T15:40:56;3.83;;;2.53;;
18804;SDS011;9530;48.930;9.526;2022-11-12T15:43:24;3.77;;;2.50;;
18804;SDS011;9530;48.930;9.526;2022-11-12T15:45:53;4.77;;;3.00;;